Hereford, Maryland
Current Conditions -  °F | °C
As of 11:09 PM on Tuesday 21 Oct 2014 (Local Time) from KMTN Reporting Station
Moderate Rain Moderate Rain  
Wind Chill: 12°   Ceiling: 1300
Heat Index: 12°   Visibility: 7mi
Dew Point: 12°   Wind: 0mph
Humidity: 100%   Direction: NA
Pressure: 29.91"   Gusts: NA
Location:  39.5784°N, 76.5798°W
Report Text: KMTN 220309Z AUTO 00000KT 7SM RA OVC013 12/12 A2991 RMK AO2 P0001 LTG DSNT SE
Loading
Personal Weather Stations






























Interactive Weather Map
Tropical Storm Tracking
New forecast layout! Learn more

10-Day Weather Forecast

Advertisements
Track Severe Weather on mobile